Time;durP1;ratioP1;P1;durP2;ratioP2;P2;SDS_P1;SDS_P2;PMS_P1;PMS_P2;Temp;Humidity;BMP_temperature;BMP_pressure;BME280_temperature;BME280_humidity;BME280_pressure;Samples;Min_cycle;Max_cycle;Signal;HPM_P1;HPM_P2
2022/12/08 00:00:03;;;;;;;16.75;10.52;;;;;;;1.99;100.00;100807.97;5107723;28;20059;-80
2022/12/08 00:02:37;;;;;;;15.70;11.27;;;;;;;1.94;100.00;100792.53;5102313;28;20038;-80
2022/12/08 00:10:32;;;;;;;13.02;7.38;;;;;;;1.98;100.00;100777.59;5101380;28;20066;-80
2022/12/08 00:12:58;;;;;;;13.07;7.50;;;;;;;2.02;100.00;100780.88;5104783;28;20038;-81
2022/12/08 00:15:24;;;;;;;8.30;5.85;;;;;;;2.08;100.00;100764.91;5097902;28;20039;-80
2022/12/08 00:17:49;;;;;;;9.70;6.60;;;;;;;2.15;100.00;100765.44;5086963;28;20478;-80
2022/12/08 00:20:15;;;;;;;11.65;7.95;;;;;;;2.22;100.00;100761.56;5101304;28;20035;-82
2022/12/08 00:22:41;;;;;;;14.32;7.25;;;;;;;2.21;100.00;100763.31;5099877;28;20036;-82
2022/12/08 00:25:07;;;;;;;14.65;8.85;;;;;;;2.26;100.00;100755.28;5104165;28;20039;-82
2022/12/08 00:27:32;;;;;;;16.50;10.73;;;;;;;2.29;100.00;100752.50;5114294;27;20476;-82
2022/12/08 00:29:58;;;;;;;15.27;10.63;;;;;;;2.28;100.00;100747.38;5081389;28;20036;-83
2022/12/08 00:32:24;;;;;;;16.02;8.85;;;;;;;2.23;100.00;100739.75;5095448;28;20024;-82
2022/12/08 00:34:50;;;;;;;18.48;10.10;;;;;;;2.14;100.00;100748.94;5099912;28;21792;-82
2022/12/08 00:37:15;;;;;;;16.08;9.70;;;;;;;2.07;100.00;100752.81;5087823;28;20039;-82
2022/12/08 00:39:41;;;;;;;17.45;10.18;;;;;;;2.03;100.00;100748.66;5096696;28;20376;-82
2022/12/08 00:42:13;;;;;;;18.10;11.70;;;;;;;2.00;100.00;100754.88;5089164;28;20034;-82
2022/12/08 00:44:44;;;;;;;18.98;11.13;;;;;;;1.97;100.00;100745.47;5079487;28;20515;-82
2022/12/08 00:47:10;;;;;;;20.98;12.15;;;;;;;1.94;100.00;100752.59;5098082;28;20076;-82
2022/12/08 00:49:36;;;;;;;16.95;9.85;;;;;;;1.92;100.00;100744.88;5088285;28;20487;-82
2022/12/08 00:52:02;;;;;;;15.07;9.77;;;;;;;1.90;100.00;100740.63;5102018;28;20023;-82
2022/12/08 00:54:27;;;;;;;15.07;9.23;;;;;;;1.91;100.00;100745.78;5086181;28;20389;-82
2022/12/08 00:56:53;;;;;;;12.77;7.43;;;;;;;1.92;100.00;100738.81;5102840;28;20120;-82
2022/12/08 00:59:19;;;;;;;13.30;7.70;;;;;;;1.94;100.00;100739.56;5084555;28;20036;-82
2022/12/08 01:01:45;;;;;;;9.98;6.35;;;;;;;1.95;100.00;100731.66;5068074;28;20035;-82
2022/12/08 01:04:16;;;;;;;14.13;6.15;;;;;;;1.97;100.00;100731.59;5063568;28;20027;-82
2022/12/08 01:06:42;;;;;;;8.15;4.68;;;;;;;1.93;100.00;100724.84;5091023;28;20039;-82
2022/12/08 01:09:09;;;;;;;10.48;4.85;;;;;;;1.91;100.00;100721.50;5075074;28;20039;-82
2022/12/08 01:11:35;;;;;;;5.78;3.95;;;;;;;1.87;100.00;100718.19;5102751;28;20112;-82
2022/12/08 01:14:02;;;;;;;9.23;4.75;;;;;;;1.87;100.00;100720.78;5090698;28;20502;-82
2022/12/08 01:16:30;;;;;;;6.40;4.35;;;;;;;1.87;100.00;100715.59;5083305;28;20039;-82
2022/12/08 01:18:58;;;;;;;8.65;3.58;;;;;;;1.85;100.00;100715.66;5099986;28;20036;-82
2022/12/08 01:21:24;;;;;;;5.93;3.63;;;;;;;1.82;100.00;100701.94;5074923;28;20089;-82
2022/12/08 01:23:49;;;;;;;3.63;2.97;;;;;;;1.78;100.00;100701.28;5094836;28;20044;-82
2022/12/08 01:26:17;;;;;;;8.18;3.15;;;;;;;1.73;100.00;100705.88;5083054;28;20039;-82
2022/12/08 01:28:43;;;;;;;4.28;2.40;;;;;;;1.66;100.00;100697.53;5078566;28;20399;-82
2022/12/08 01:31:18;;;;;;;7.63;3.08;;;;;;;1.64;100.00;100701.97;5105706;28;20035;-82
2022/12/08 01:33:44;;;;;;;4.43;2.80;;;;;;;1.59;100.00;100698.78;5069244;28;20039;-82
2022/12/08 01:36:26;;;;;;;6.22;2.47;;;;;;;1.59;100.00;100701.41;5111867;28;20043;-82
2022/12/08 01:38:53;;;;;;;5.20;2.58;;;;;;;1.56;100.00;100697.16;5106878;28;20032;-82
2022/12/08 01:41:22;;;;;;;7.32;2.70;;;;;;;1.55;100.00;100690.28;5103509;28;20016;-82
2022/12/08 01:43:56;;;;;;;5.80;2.58;;;;;;;1.57;100.00;100687.59;5080712;28;20484;-82
2022/12/08 01:46:23;;;;;;;6.70;2.33;;;;;;;1.55;100.00;100690.28;5093050;28;20487;-80
2022/12/08 01:48:52;;;;;;;5.15;2.92;;;;;;;1.59;100.00;100693.59;5093258;28;20050;-80
2022/12/08 01:51:19;;;;;;;7.88;2.78;;;;;;;1.61;100.00;100683.91;5091168;28;20584;-80
2022/12/08 01:53:46;;;;;;;7.78;2.60;;;;;;;1.59;100.00;100683.97;5100206;28;20047;-80
2022/12/08 01:56:18;;;;;;;7.88;3.95;;;;;;;1.57;100.00;100683.25;5106933;28;20111;-80
2022/12/08 01:58:51;;;;;;;4.95;3.88;;;;;;;1.55;100.00;100679.00;5072018;28;20076;-80
2022/12/08 02:01:17;;;;;;;6.40;3.50;;;;;;;1.51;100.00;100664.47;5075467;28;20034;-80
2022/12/08 02:03:51;;;;;;;6.93;3.35;;;;;;;1.57;100.00;100667.59;5090971;28;20040;-82
2022/12/08 02:06:18;;;;;;;4.30;3.20;;;;;;;1.53;100.00;100663.47;5080781;28;20036;-82
2022/12/08 02:08:45;;;;;;;5.15;3.42;;;;;;;1.51;100.00;100665.31;5102187;28;20037;-80
2022/12/08 02:11:12;;;;;;;8.27;4.70;;;;;;;1.47;100.00;100662.03;5114704;27;20478;-80
2022/12/08 02:13:40;;;;;;;8.77;5.68;;;;;;;1.44;100.00;100653.53;5083716;28;20118;-80
2022/12/08 02:16:29;;;;;;;10.68;5.47;;;;;;;1.42;100.00;100645.78;5091600;28;20468;-81
2022/12/08 02:19:01;;;;;;;14.73;6.57;;;;;;;1.38;100.00;100644.28;5091617;28;20049;-80
2022/12/08 02:21:40;;;;;;;7.40;5.80;;;;;;;1.40;100.00;100645.03;5074711;28;20054;-80
2022/12/08 02:24:27;;;;;;;7.30;4.05;;;;;;;1.40;100.00;100639.81;5086000;28;20032;-80
2022/12/08 02:26:59;;;;;;;7.72;3.42;;;;;;;1.42;100.00;100637.97;5068002;28;20956;-80
2022/12/08 02:29:52;;;;;;;4.40;3.60;;;;;;;1.42;100.00;100637.16;5109395;28;20091;-80
2022/12/08 02:32:36;;;;;;;6.97;3.03;;;;;;;1.40;100.00;100634.59;5102857;28;20036;-80
2022/12/08 02:35:14;;;;;;;7.38;3.10;;;;;;;1.43;100.00;100636.22;5104246;28;20027;-80
2022/12/08 02:38:01;;;;;;;5.15;3.13;;;;;;;1.41;100.00;100638.91;5109594;28;20073;-80
2022/12/08 02:40:34;;;;;;;9.23;5.60;;;;;;;1.40;100.00;100634.59;5084432;28;20035;-80
2022/12/08 02:43:07;;;;;;;14.80;6.85;;;;;;;1.31;100.00;100625.50;5087529;28;20053;-80
2022/12/08 02:45:40;;;;;;;12.95;7.90;;;;;;;1.19;100.00;100624.41;5092941;28;20035;-80
2022/12/08 02:48:08;;;;;;;11.55;7.88;;;;;;;1.09;100.00;100620.56;5109885;28;20121;-80
2022/12/08 02:50:34;;;;;;;9.70;7.55;;;;;;;1.00;100.00;100616.69;5091467;28;20031;-80
2022/12/08 02:53:01;;;;;;;10.23;6.85;;;;;;;0.91;100.00;100615.38;5084096;28;20032;-80
2022/12/08 02:55:32;;;;;;;8.30;5.65;;;;;;;0.84;100.00;100617.47;5086058;28;20637;-80
2022/12/08 02:58:12;;;;;;;9.45;6.07;;;;;;;0.78;100.00;100615.16;5102125;28;20388;-80
2022/12/08 03:01:00;;;;;;;8.80;6.20;;;;;;;0.76;100.00;100616.16;5122996;27;20032;-80
2022/12/08 03:03:27;;;;;;;7.82;4.90;;;;;;;0.70;100.00;100612.94;5094829;28;20050;-80
2022/12/08 03:06:11;;;;;;;10.05;6.40;;;;;;;0.74;100.00;100613.63;5065868;28;20046;-80
2022/12/08 03:09:15;;;;;;;12.15;6.45;;;;;;;0.71;100.00;100608.56;5107434;28;20122;-81
2022/12/08 03:11:53;;;;;;;11.48;5.30;;;;;;;0.69;100.00;100608.66;5028449;28;20366;-80
2022/12/08 03:14:21;;;;;;;6.68;4.90;;;;;;;0.66;100.00;100603.59;5078018;28;20043;-80
2022/12/08 03:16:49;;;;;;;9.27;5.20;;;;;;;0.62;100.00;100609.88;5106512;28;20070;-80
2022/12/08 03:19:19;;;;;;;7.82;4.70;;;;;;;0.57;100.00;100599.72;5072045;28;20044;-82
2022/12/08 03:21:50;;;;;;;12.15;5.05;;;;;;;0.57;100.00;100598.84;5105111;28;20383;-82
2022/12/08 03:24:16;;;;;;;8.55;5.40;;;;;;;0.49;100.00;100589.66;5108993;28;20038;-80
2022/12/08 03:26:47;;;;;;;9.27;5.03;;;;;;;0.47;100.00;100593.25;5088293;28;20040;-81
2022/12/08 03:29:13;;;;;;;9.48;5.03;;;;;;;0.46;100.00;100591.59;5103674;28;20574;-80
2022/12/08 03:31:46;;;;;;;8.18;4.88;;;;;;;0.45;100.00;100590.72;5098550;28;20031;-81
2022/12/08 03:34:13;;;;;;;8.07;4.18;;;;;;;0.44;100.00;100589.06;5088967;28;20364;-80
2022/12/08 03:36:39;;;;;;;5.97;4.47;;;;;;;0.34;100.00;100582.59;5089806;28;20066;-80
2022/12/08 03:39:05;;;;;;;6.35;3.90;;;;;;;0.32;100.00;100571.47;5101206;28;20816;-79
2022/12/08 03:41:31;;;;;;;7.43;4.65;;;;;;;0.27;100.00;100565.63;5105707;28;20027;-80
2022/12/08 03:43:58;;;;;;;6.75;3.90;;;;;;;0.26;100.00;100569.97;5067726;28;20092;-80
2022/12/08 03:46:26;;;;;;;6.78;4.07;;;;;;;0.23;100.00;100564.94;5102201;28;20082;-80
2022/12/08 03:48:52;;;;;;;5.40;4.05;;;;;;;0.19;100.00;100561.63;5024505;28;20054;-80
2022/12/08 03:51:19;;;;;;;8.75;4.45;;;;;;;0.20;100.00;100562.47;5080518;28;20039;-80
2022/12/08 03:53:45;;;;;;;13.95;5.13;;;;;;;0.15;100.00;100557.50;5107652;28;20039;-80
2022/12/08 03:56:33;;;;;;;6.82;4.63;;;;;;;0.09;100.00;100550.84;5100238;28;20042;-80
2022/12/08 03:58:59;;;;;;;7.25;4.32;;;;;;;0.02;100.00;100552.03;5099805;28;20051;-80
2022/12/08 04:01:26;;;;;;;9.85;5.25;;;;;;;0.01;100.00;100544.31;5089597;28;20031;-80
2022/12/08 04:03:52;;;;;;;9.50;4.95;;;;;;;-0.05;100.00;100541.09;5105074;28;20031;-80
2022/12/08 04:06:19;;;;;;;7.47;5.13;;;;;;;-0.07;100.00;100544.69;5087638;28;20042;-80
2022/12/08 04:08:45;;;;;;;9.05;5.40;;;;;;;-0.16;100.00;100545.97;5069514;28;20498;-80
2022/12/08 04:11:11;;;;;;;6.70;5.25;;;;;;;-0.31;100.00;100539.72;5064381;28;20039;-80
2022/12/08 04:13:39;;;;;;;8.00;5.70;;;;;;;-0.33;100.00;100536.34;5099220;28;20047;-81
2022/12/08 04:16:06;;;;;;;8.98;5.43;;;;;;;-0.34;100.00;100539.88;5103745;28;20147;-81
2022/12/08 04:18:32;;;;;;;8.95;4.60;;;;;;;-0.39;100.00;100546.13;5092036;28;20437;-81
2022/12/08 04:20:58;;;;;;;10.90;4.88;;;;;;;-0.40;100.00;100539.25;5102848;28;20039;-81
2022/12/08 04:23:24;;;;;;;27.20;5.50;;;;;;;-0.47;100.00;100537.00;5103301;28;20039;-80
2022/12/08 04:25:51;;;;;;;32.38;5.55;;;;;;;-0.57;100.00;100531.38;5106028;28;20035;-80
2022/12/08 04:28:17;;;;;;;136.80;7.32;;;;;;;-0.69;100.00;100528.44;5081536;28;20054;-80
2022/12/08 04:30:43;;;;;;;30.27;5.28;;;;;;;-0.77;100.00;100531.41;5066674;28;20121;-83
2022/12/08 04:33:08;;;;;;;104.25;7.38;;;;;;;-0.77;100.00;100535.72;5087687;28;20479;-83
2022/12/08 04:35:34;;;;;;;36.72;5.25;;;;;;;-0.76;100.00;100529.63;5105722;28;20088;-82
2022/12/08 04:38:00;;;;;;;13.45;5.50;;;;;;;-0.76;100.00;100534.81;5086715;28;20505;-82
2022/12/08 04:40:26;;;;;;;27.80;5.72;;;;;;;-0.73;100.00;100531.25;5108543;28;20028;-82
2022/12/08 04:42:52;;;;;;;14.07;5.47;;;;;;;-0.72;100.00;100526.00;5078201;28;20105;-83
2022/12/08 04:45:18;;;;;;;39.05;6.63;;;;;;;-0.71;100.00;100527.66;5066256;28;20653;-83
2022/12/08 04:47:44;;;;;;;18.17;7.10;;;;;;;-0.73;100.00;100523.47;5101132;28;20088;-83
2022/12/08 04:50:11;;;;;;;46.33;8.25;;;;;;;-0.73;100.00;100526.88;5074967;28;20031;-83
2022/12/08 04:52:38;;;;;;;29.67;7.00;;;;;;;-0.73;100.00;100510.50;5102134;28;20036;-83
2022/12/08 04:55:04;;;;;;;68.55;8.55;;;;;;;-0.75;100.00;100516.56;5096727;28;20036;-82
2022/12/08 04:57:30;;;;;;;96.03;8.43;;;;;;;-0.77;100.00;100513.22;5091816;28;20054;-83
2022/12/08 04:59:56;;;;;;;42.50;8.68;;;;;;;-0.75;100.00;100506.19;5083211;28;20479;-82
2022/12/08 05:02:22;;;;;;;58.85;10.50;;;;;;;-0.76;100.00;100501.06;5101359;28;20503;-83
2022/12/08 05:04:48;;;;;;;55.97;10.80;;;;;;;-0.76;100.00;100504.53;5090226;28;20035;-83
2022/12/08 05:07:14;;;;;;;45.72;9.80;;;;;;;-0.72;100.00;100504.38;5083058;28;20036;-83
2022/12/08 05:09:40;;;;;;;62.10;9.27;;;;;;;-0.70;100.00;100507.75;5100154;28;20085;-82
2022/12/08 05:12:06;;;;;;;81.93;9.55;;;;;;;-0.76;100.00;100501.91;5086552;28;20035;-82
2022/12/08 05:14:31;;;;;;;61.63;9.35;;;;;;;-0.81;100.00;100497.88;5099504;28;20070;-82
2022/12/08 05:16:57;;;;;;;57.65;10.70;;;;;;;-0.78;100.00;100495.13;5100443;28;20040;-82
2022/12/08 05:19:23;;;;;;;52.92;8.60;;;;;;;-0.78;100.00;100493.34;5088496;28;20618;-82
2022/12/08 05:21:50;;;;;;;80.63;9.63;;;;;;;-0.76;100.00;100490.69;5102618;28;20063;-82
2022/12/08 05:24:16;;;;;;;74.95;10.05;;;;;;;-0.80;100.00;100490.00;5086057;28;20064;-82
2022/12/08 05:26:42;;;;;;;19.80;8.77;;;;;;;-0.79;100.00;100483.91;5100209;28;20044;-83
2022/12/08 05:29:07;;;;;;;25.27;9.18;;;;;;;-0.79;100.00;100478.69;5080158;28;20044;-82
2022/12/08 05:31:33;;;;;;;14.15;8.30;;;;;;;-0.78;100.00;100479.56;5082011;28;20040;-82
2022/12/08 05:33:59;;;;;;;12.23;6.72;;;;;;;-0.81;100.00;100470.13;5086493;28;20450;-83
2022/12/08 05:36:25;;;;;;;18.38;7.10;;;;;;;-0.81;100.00;100467.53;5103825;28;20031;-83
2022/12/08 05:38:51;;;;;;;20.77;7.38;;;;;;;-0.81;100.00;100464.13;5096530;28;20403;-83
2022/12/08 05:41:19;;;;;;;12.70;7.78;;;;;;;-0.81;100.00;100462.34;5091393;28;20035;-83
2022/12/08 05:43:46;;;;;;;13.20;8.00;;;;;;;-0.80;100.00;100461.47;5106522;28;20115;-83
2022/12/08 05:46:13;;;;;;;32.58;8.10;;;;;;;-0.81;100.00;100453.75;5099101;28;20032;-83
2022/12/08 05:48:39;;;;;;;16.70;7.68;;;;;;;-0.80;100.00;100452.81;5088892;28;20516;-83
2022/12/08 05:51:12;;;;;;;28.15;7.68;;;;;;;-0.75;100.00;100448.25;5087973;28;20025;-82
2022/12/08 05:53:37;;;;;;;46.30;7.63;;;;;;;-0.74;100.00;100457.72;5106200;28;20038;-83
2022/12/08 05:56:03;;;;;;;30.98;7.13;;;;;;;-0.77;100.00;100450.09;5090393;28;20053;-83
2022/12/08 05:58:29;;;;;;;92.13;10.60;;;;;;;-0.83;100.00;100453.81;5098234;28;20127;-82
2022/12/08 06:00:55;;;;;;;55.03;8.73;;;;;;;-0.95;100.00;100446.56;5102922;28;20475;-83
2022/12/08 06:03:21;;;;;;;64.50;8.50;;;;;;;-1.06;100.00;100441.84;5082383;28;20457;-84
2022/12/08 06:05:47;;;;;;;51.38;7.97;;;;;;;-1.06;100.00;100447.06;5102478;28;20027;-83
2022/12/08 06:08:13;;;;;;;22.48;7.32;;;;;;;-1.04;100.00;100450.44;5103828;28;20032;-82
2022/12/08 06:10:40;;;;;;;79.35;8.00;;;;;;;-1.02;100.00;100446.84;5103960;28;20046;-83
2022/12/08 06:13:06;;;;;;;29.70;8.25;;;;;;;-1.02;100.00;100433.88;5086415;28;20184;-83
2022/12/08 06:15:37;;;;;;;11.77;7.18;;;;;;;-0.92;100.00;100441.22;5069883;28;20122;-83
2022/12/08 06:18:04;;;;;;;20.67;7.32;;;;;;;-0.91;100.00;100440.34;5092480;28;20526;-83
2022/12/08 06:20:30;;;;;;;12.00;7.18;;;;;;;-0.90;100.00;100442.88;5076545;28;20062;-83
2022/12/08 06:22:56;;;;;;;12.90;6.45;;;;;;;-0.91;100.00;100448.94;5088468;28;20031;-83
2022/12/08 06:25:22;;;;;;;9.52;5.85;;;;;;;-0.86;100.00;100442.72;5104037;28;20521;-83
2022/12/08 06:27:48;;;;;;;9.38;6.03;;;;;;;-0.84;100.00;100441.72;5075509;28;20106;-83
2022/12/08 06:30:15;;;;;;;13.32;6.75;;;;;;;-0.79;100.00;100434.56;5091702;28;20025;-83
2022/12/08 06:32:41;;;;;;;18.02;6.68;;;;;;;-0.77;100.00;100430.16;5111194;28;20039;-82
2022/12/08 06:35:07;;;;;;;33.70;6.53;;;;;;;-0.69;100.00;100434.16;5105787;28;20039;-82
2022/12/08 06:37:33;;;;;;;9.80;6.32;;;;;;;-0.66;100.00;100436.59;5110677;28;20055;-82
2022/12/08 06:39:59;;;;;;;8.93;5.68;;;;;;;-0.65;100.00;100430.47;5090500;28;20066;-81
2022/12/08 06:42:43;;;;;;;7.30;5.97;;;;;;;-0.63;100.00;100426.06;5084558;28;20051;-81
2022/12/08 06:45:11;;;;;;;12.40;8.48;;;;;;;-0.58;100.00;100423.25;5106089;28;20035;-82
2022/12/08 06:47:36;;;;;;;15.15;6.53;;;;;;;-0.56;100.00;100424.03;5104284;28;20122;-82
2022/12/08 06:50:03;;;;;;;11.90;7.40;;;;;;;-0.68;100.00;100428.03;5091148;28;20632;-81
2022/12/08 06:52:29;;;;;;;15.05;7.03;;;;;;;-0.93;100.00;100424.00;5090089;28;20114;-81
2022/12/08 06:54:55;;;;;;;42.80;8.73;;;;;;;-1.09;100.00;100424.69;5099901;28;20077;-82
2022/12/08 06:57:22;;;;;;;17.23;8.02;;;;;;;-1.15;100.00;100420.59;5103357;28;20036;-82
2022/12/08 06:59:48;;;;;;;19.60;9.38;;;;;;;-1.06;100.00;100413.31;5088393;28;20059;-82
2022/12/08 07:02:16;;;;;;;16.00;8.25;;;;;;;-1.01;100.00;100407.03;5106734;28;20042;-82
2022/12/08 07:04:41;;;;;;;46.53;9.75;;;;;;;-0.96;100.00;100409.41;5091039;28;20127;-81
2022/12/08 07:07:07;;;;;;;27.23;7.97;;;;;;;-0.96;100.00;100406.81;5089355;28;20036;-82
2022/12/08 07:09:33;;;;;;;28.75;7.65;;;;;;;-0.92;100.00;100404.91;5095172;28;20039;-82
2022/12/08 07:11:59;;;;;;;34.65;7.35;;;;;;;-0.87;100.00;100410.72;5105180;28;20039;-83
2022/12/08 07:14:25;;;;;;;27.70;7.35;;;;;;;-0.82;100.00;100407.91;5099446;28;20034;-80
2022/12/08 07:16:51;;;;;;;43.28;9.38;;;;;;;-0.82;100.00;100413.09;5100546;28;20170;-80
2022/12/08 07:19:17;;;;;;;21.30;8.65;;;;;;;-0.86;100.00;100403.78;5102353;28;20050;-81
2022/12/08 07:21:43;;;;;;;22.70;8.93;;;;;;;-0.90;100.00;100403.09;5100429;28;20498;-81
2022/12/08 07:24:10;;;;;;;61.65;11.20;;;;;;;-0.90;100.00;100400.50;5102245;28;20032;-81
2022/12/08 07:26:36;;;;;;;95.07;10.00;;;;;;;-0.81;100.00;100401.84;5108216;28;20439;-81
2022/12/08 07:29:02;;;;;;;108.47;15.15;;;;;;;-0.78;100.00;100399.09;5104980;28;20104;-81
2022/12/08 07:31:28;;;;;;;39.58;11.30;;;;;;;-0.72;100.00;100400.56;5108376;28;20027;-81
2022/12/08 07:33:56;;;;;;;32.38;14.25;;;;;;;-0.66;100.00;100390.72;5083183;28;20050;-81
2022/12/08 07:36:22;;;;;;;35.17;11.93;;;;;;;-0.64;100.00;100396.66;5098847;28;20400;-80
2022/12/08 07:38:48;;;;;;;48.13;12.90;;;;;;;-0.58;100.00;100389.50;5103283;28;20537;-79
2022/12/08 07:41:19;;;;;;;22.20;11.65;;;;;;;-0.54;100.00;100399.66;5099379;28;20414;-80
2022/12/08 07:43:46;;;;;;;32.65;11.18;;;;;;;-0.55;100.00;100395.41;5097921;28;20070;-80
2022/12/08 07:46:19;;;;;;;35.15;10.05;;;;;;;-0.64;100.00;100395.84;5088093;28;20541;-81
2022/12/08 07:48:45;;;;;;;10.70;7.50;;;;;;;-0.74;100.00;100390.25;5086903;28;20118;-81
2022/12/08 07:51:13;;;;;;;62.75;8.27;;;;;;;-0.70;100.00;100390.94;5107307;28;20031;-82
2022/12/08 07:53:40;;;;;;;53.25;7.63;;;;;;;-0.74;100.00;100392.84;5083473;28;20055;-82
2022/12/08 07:56:07;;;;;;;33.80;7.18;;;;;;;-0.75;100.00;100385.97;5088748;28;20047;-82
2022/12/08 07:58:33;;;;;;;22.75;6.90;;;;;;;-0.75;100.00;100389.38;5104745;27;20050;-81
2022/12/08 08:00:59;;;;;;;22.52;6.75;;;;;;;-0.69;100.00;100377.03;5108219;28;20020;-81
2022/12/08 08:03:25;;;;;;;9.68;7.10;;;;;;;-0.67;100.00;100380.41;5104947;28;20028;-82
2022/12/08 08:05:50;;;;;;;8.35;5.47;;;;;;;-0.61;100.00;100380.13;5088387;28;20038;-82
2022/12/08 08:08:17;;;;;;;18.02;7.07;;;;;;;-0.59;100.00;100380.88;5071011;28;20116;-82
2022/12/08 08:10:43;;;;;;;13.02;7.00;;;;;;;-0.61;100.00;100382.72;5099826;28;20043;-82
2022/12/08 08:13:09;;;;;;;10.00;6.57;;;;;;;-0.58;100.00;100379.13;5088290;28;20114;-82
2022/12/08 08:15:35;;;;;;;26.70;7.30;;;;;;;-0.59;100.00;100375.66;5090412;28;20471;-82
2022/12/08 08:18:01;;;;;;;41.03;7.65;;;;;;;-0.55;100.00;100373.78;5082087;28;20123;-81
2022/12/08 08:20:29;;;;;;;31.45;7.30;;;;;;;-0.53;100.00;100372.81;5105027;28;20099;-81
2022/12/08 08:22:54;;;;;;;68.18;7.85;;;;;;;-0.48;100.00;100374.31;5092166;28;20032;-82
2022/12/08 08:25:22;;;;;;;74.07;7.65;;;;;;;-0.48;100.00;100372.59;5105198;28;20122;-81
2022/12/08 08:27:48;;;;;;;23.33;7.70;;;;;;;-0.50;100.00;100371.81;5088720;28;20451;-82
2022/12/08 08:30:15;;;;;;;15.57;7.70;;;;;;;-0.47;100.00;100373.41;5067740;28;20036;-82
2022/12/08 08:32:41;;;;;;;15.93;7.75;;;;;;;-0.48;100.00;100376.94;5100731;28;20495;-82
2022/12/08 08:35:07;;;;;;;13.38;7.32;;;;;;;-0.48;100.00;100371.72;5102469;28;20376;-82
2022/12/08 08:37:33;;;;;;;14.85;7.97;;;;;;;-0.49;100.00;100375.25;5090339;28;20492;-82
2022/12/08 08:39:59;;;;;;;29.40;7.82;;;;;;;-0.51;100.00;100378.75;5086137;28;20050;-82
2022/12/08 08:42:25;;;;;;;18.40;6.40;;;;;;;-0.48;100.00;100376.94;5065329;28;20038;-82
2022/12/08 08:44:51;;;;;;;46.63;27.13;;;;;;;-0.45;100.00;100380.22;5098906;28;20482;-82
2022/12/08 08:47:17;;;;;;;18.83;9.07;;;;;;;-0.44;100.00;100376.69;5083463;28;20050;-81
2022/12/08 08:49:42;;;;;;;21.55;9.32;;;;;;;-0.45;100.00;100372.44;5075421;28;20027;-82
2022/12/08 08:52:09;;;;;;;33.63;11.85;;;;;;;-0.43;100.00;100380.16;5107793;28;20028;-81
2022/12/08 08:54:34;;;;;;;18.83;8.00;;;;;;;-0.46;100.00;100372.50;5107652;28;20031;-82
2022/12/08 08:57:01;;;;;;;20.52;8.55;;;;;;;-0.48;100.00;100377.78;5105158;28;20112;-82
2022/12/08 08:59:27;;;;;;;27.70;8.43;;;;;;;-0.53;100.00;100374.56;5061173;28;20048;-82
2022/12/08 09:01:54;;;;;;;114.10;59.97;;;;;;;-0.57;100.00;100373.84;5103932;28;20036;-82
2022/12/08 09:04:22;;;;;;;101.95;54.88;;;;;;;-0.54;100.00;100367.69;5104926;28;20039;-82
2022/12/08 09:06:48;;;;;;;85.75;50.28;;;;;;;-0.49;100.00;100365.69;5098187;28;20122;-82
2022/12/08 09:09:15;;;;;;;115.55;66.45;;;;;;;-0.41;100.00;100362.72;5106822;28;20024;-81
2022/12/08 09:11:41;;;;;;;136.93;79.30;;;;;;;-0.38;100.00;100360.81;5107386;28;20032;-81
2022/12/08 09:14:11;;;;;;;180.10;92.03;;;;;;;-0.32;100.00;100359.66;5064690;28;20044;-81
2022/12/08 09:16:37;;;;;;;131.93;77.13;;;;;;;-0.28;100.00;100362.97;5077611;28;20039;-81
2022/12/08 09:19:03;;;;;;;20.30;11.65;;;;;;;-0.26;100.00;100354.19;5089255;28;20476;-81
2022/12/08 09:21:29;;;;;;;8.43;6.47;;;;;;;-0.20;100.00;100358.22;5096545;28;20030;-81
2022/12/08 09:23:57;;;;;;;9.23;6.28;;;;;;;-0.11;100.00;100361.28;5107667;28;20039;-80
2022/12/08 09:26:24;;;;;;;7.28;5.05;;;;;;;-0.06;100.00;100361.88;5101820;28;20039;-81
2022/12/08 09:28:51;;;;;;;11.07;6.55;;;;;;;-0.04;100.00;100360.91;5096180;28;20043;-81
2022/12/08 09:31:19;;;;;;;11.27;6.90;;;;;;;0.00;100.00;100356.41;5084347;28;20472;-81
2022/12/08 09:33:45;;;;;;;15.10;7.65;;;;;;;-0.02;100.00;100358.22;5078094;28;20040;-80
2022/12/08 09:36:11;;;;;;;14.52;8.75;;;;;;;-0.08;100.00;100361.13;5103731;28;20023;-72
2022/12/08 09:38:37;;;;;;;13.32;8.15;;;;;;;-0.18;100.00;100356.41;5101538;28;20123;-81
2022/12/08 09:41:13;;;;;;;15.00;9.57;;;;;;;-0.27;100.00;100367.25;5097545;28;20032;-81
2022/12/08 09:43:59;;;;;;;15.48;9.98;;;;;;;-0.30;100.00;100359.59;5078184;28;20040;-80
2022/12/08 09:46:29;;;;;;;13.70;7.68;;;;;;;-0.38;100.00;100363.41;5103817;28;20043;-80
2022/12/08 09:48:58;;;;;;;13.45;7.75;;;;;;;-0.36;100.00;100362.50;5079250;28;20036;-81
2022/12/08 09:51:28;;;;;;;10.32;7.10;;;;;;;-0.27;100.00;100362.06;5086472;28;20047;-80
2022/12/08 09:54:06;;;;;;;33.05;23.75;;;;;;;-0.18;100.00;100356.41;5098561;28;20036;-80
2022/12/08 09:56:35;;;;;;;27.40;17.80;;;;;;;-0.13;100.00;100356.16;5106409;28;20031;-80
2022/12/08 09:59:19;;;;;;;21.00;14.30;;;;;;;-0.06;100.00;100361.88;5079975;28;20052;-80
2022/12/08 10:01:45;;;;;;;20.33;12.13;;;;;;;-0.02;100.00;100350.44;5063381;28;20814;-80
2022/12/08 10:04:24;;;;;;;14.10;9.10;;;;;;;0.07;100.00;100356.91;5085838;28;20036;-80
2022/12/08 10:07:29;;;;;;;13.70;9.52;;;;;;;0.14;100.00;100360.03;5098831;28;20424;-80
2022/12/08 10:10:04;;;;;;;17.48;9.77;;;;;;;0.21;100.00;100359.63;5088765;28;20036;-81
2022/12/08 10:12:42;;;;;;;17.05;10.00;;;;;;;0.26;100.00;100359.38;5097831;28;20110;-80
2022/12/08 10:15:29;;;;;;;13.18;8.90;;;;;;;0.31;100.00;100348.75;5105725;28;20488;-87
2022/12/08 10:18:00;;;;;;;13.93;9.50;;;;;;;0.32;100.00;100340.88;5105926;28;20095;-87
2022/12/08 10:20:36;;;;;;;19.00;10.65;;;;;;;0.39;100.00;100338.78;5093206;28;20103;-80
2022/12/08 10:23:11;;;;;;;;;;;;;;;0.35;100.00;100345.91;5110690;28;20903;-80
2022/12/08 10:25:44;;;;;;;24.85;13.32;;;;;;;0.44;100.00;100341.16;5082210;28;19915;-81
2022/12/08 10:28:11;;;;;;;41.67;23.90;;;;;;;0.45;100.00;100341.06;5082790;28;20035;-80
2022/12/08 10:30:38;;;;;;;39.38;23.85;;;;;;;0.51;100.00;100333.88;5107128;28;20108;-87
2022/12/08 10:33:04;;;;;;;49.95;26.90;;;;;;;0.56;100.00;100334.44;5100846;28;20062;-86
2022/12/08 10:35:53;;;;;;;25.38;15.50;;;;;;;0.60;100.00;100341.19;5088615;28;20086;-81
2022/12/08 10:38:32;;;;;;;23.83;13.95;;;;;;;0.67;100.00;100347.72;5099631;27;20461;-88
2022/12/08 10:41:19;;;;;;;30.80;18.55;;;;;;;0.70;100.00;100347.56;5082618;28;20407;-88
2022/12/08 10:43:48;;;;;;;24.38;13.60;;;;;;;0.72;100.00;100343.13;5105591;28;20031;-81
2022/12/08 10:46:20;;;;;;;24.95;14.32;;;;;;;0.75;100.00;100339.50;5099304;28;20032;-81
2022/12/08 10:49:10;;;;;;;18.13;11.48;;;;;;;0.76;100.00;100341.19;5102337;28;20036;-87
2022/12/08 10:51:41;;;;;;;21.55;13.82;;;;;;;0.79;100.00;100337.56;5095861;28;20047;-88
2022/12/08 10:54:34;;;;;;;21.80;13.85;;;;;;;0.83;100.00;100341.69;5103916;28;20036;-81
2022/12/08 10:57:01;;;;;;;20.45;13.63;;;;;;;0.86;100.00;100338.94;5104806;28;20484;-81
2022/12/08 10:59:26;;;;;;;23.30;14.32;;;;;;;0.93;100.00;100337.66;5089637;28;20051;-81
2022/12/08 11:01:56;;;;;;;22.95;13.80;;;;;;;1.05;100.00;100333.53;5104326;28;20097;-81
2022/12/08 11:04:25;;;;;;;21.33;13.05;;;;;;;1.10;100.00;100334.13;5085771;28;20166;-80
2022/12/08 11:06:52;;;;;;;20.90;12.23;;;;;;;1.11;100.00;100325.38;5083062;28;20404;-81
2022/12/08 11:09:18;;;;;;;24.08;12.60;;;;;;;1.13;100.00;100324.47;5092528;28;20039;-88
2022/12/08 11:12:04;;;;;;;21.48;12.60;;;;;;;1.14;100.00;100339.16;5105334;28;20089;-87
2022/12/08 11:14:44;;;;;;;20.60;11.98;;;;;;;1.06;100.00;100332.63;5068690;28;20096;-80
2022/12/08 11:17:12;;;;;;;20.77;12.52;;;;;;;1.05;100.00;100333.53;5075580;28;20040;-80
2022/12/08 11:19:54;;;;;;;17.63;11.65;;;;;;;1.03;100.00;100322.38;5067308;28;20077;-80
2022/12/08 11:22:31;;;;;;;18.52;10.93;;;;;;;1.02;100.00;100323.28;5091355;28;20070;-82
2022/12/08 11:25:18;;;;;;;17.90;10.30;;;;;;;1.14;100.00;100320.94;5089082;28;20044;-81
2022/12/08 11:27:47;;;;;;;21.27;11.57;;;;;;;1.31;100.00;100301.75;5093314;28;20038;-80